createdAt,value
2018-01-27T00:00:32.334Z,4.23
2018-01-27T00:01:34.339Z,4.43
2018-01-27T00:02:35.605Z,4.30
2018-01-27T00:03:36.928Z,4.20
2018-01-27T00:04:38.133Z,4.23
2018-01-27T00:05:39.387Z,3.97
2018-01-27T00:06:40.641Z,3.97
2018-01-27T00:07:41.913Z,3.97
2018-01-27T00:08:43.974Z,3.67
2018-01-27T00:09:45.223Z,4.20
2018-01-27T00:10:46.457Z,4.27
2018-01-27T00:11:47.989Z,4.20
2018-01-27T00:12:49.211Z,3.63
2018-01-27T00:13:51.238Z,4.17
2018-01-27T00:14:52.519Z,4.13
2018-01-27T00:15:53.792Z,4.30
2018-01-27T00:16:55.304Z,4.07
2018-01-27T00:17:56.534Z,4.47
2018-01-27T00:18:57.767Z,3.63
2018-01-27T00:19:59.024Z,4.00
2018-01-27T00:21:00.294Z,4.50
2018-01-27T00:22:01.841Z,4.10
2018-01-27T00:23:03.087Z,4.20
2018-01-27T00:24:05.071Z,4.77
2018-01-27T00:25:06.317Z,4.73
2018-01-27T00:26:07.551Z,4.47
2018-01-27T00:27:08.812Z,4.20
2018-01-27T00:28:10.061Z,4.37
2018-01-27T00:29:11.297Z,4.03
2018-01-27T00:30:12.541Z,5.47
2018-01-27T00:31:13.773Z,4.57
2018-01-27T00:32:15.308Z,4.50
2018-01-27T00:33:16.541Z,4.40
2018-01-27T00:34:17.765Z,4.60
2018-01-27T00:35:19.015Z,4.57
2018-01-27T00:36:20.261Z,4.80
2018-01-27T00:37:21.809Z,4.20
2018-01-27T00:38:23.789Z,4.37
2018-01-27T00:39:25.029Z,4.53
2018-01-27T00:40:26.298Z,4.80
2018-01-27T00:41:27.527Z,4.50
2018-01-27T00:42:28.788Z,4.87
2018-01-27T00:43:30.037Z,4.80
2018-01-27T00:44:38.957Z,4.70
2018-01-27T00:45:40.963Z,5.10
2018-01-27T00:46:42.209Z,5.40
2018-01-27T00:47:43.463Z,5.20
2018-01-27T00:48:44.714Z,4.97
2018-01-27T00:49:46.691Z,5.30
2018-01-27T00:50:47.921Z,6.93
2018-01-27T00:51:49.153Z,6.37
2018-01-27T00:52:50.425Z,6.80
2018-01-27T00:53:51.674Z,8.03
2018-01-27T00:54:52.915Z,8.07
2018-01-27T00:55:54.150Z,7.93
2018-01-27T00:56:55.400Z,8.70
2018-01-27T00:57:56.950Z,8.53
2018-01-27T00:58:58.973Z,8.93
2018-01-27T01:00:00.243Z,10.03
2018-01-27T01:01:02.251Z,10.27
2018-01-27T01:02:03.487Z,10.17
2018-01-27T01:03:04.983Z,11.50
2018-01-27T01:04:06.969Z,12.20
2018-01-27T01:05:08.191Z,12.37
2018-01-27T01:06:09.462Z,10.63
2018-01-27T01:07:10.708Z,11.20
2018-01-27T01:08:12.079Z,10.03
2018-01-27T01:09:14.794Z,10.33
2018-01-27T01:10:16.023Z,10.20
2018-01-27T01:11:17.267Z,9.90
2018-01-27T01:12:18.545Z,10.90
2018-01-27T01:13:20.899Z,10.23
2018-01-27T01:14:22.133Z,10.53
2018-01-27T01:15:23.384Z,10.60
2018-01-27T01:16:25.406Z,11.50
2018-01-27T01:17:26.647Z,12.53
2018-01-27T01:18:27.938Z,12.43
2018-01-27T01:19:36.267Z,10.90
2018-01-27T01:20:37.513Z,10.50
2018-01-27T01:21:38.766Z,10.60
2018-01-27T01:22:40.751Z,11.50
2018-01-27T01:23:42.267Z,11.60
2018-01-27T01:24:44.247Z,10.97
2018-01-27T01:25:45.493Z,11.57
2018-01-27T01:26:46.763Z,11.20
2018-01-27T01:27:48.005Z,12.33
2018-01-27T01:28:49.556Z,13.50
2018-01-27T01:29:50.791Z,12.83
2018-01-27T01:30:52.047Z,13.57
2018-01-27T01:31:54.037Z,13.13
2018-01-27T01:32:55.281Z,11.83
2018-01-27T01:33:56.791Z,12.70
2018-01-27T01:34:58.031Z,11.67
2018-01-27T01:35:59.274Z,12.20
2018-01-27T01:37:00.503Z,10.77
2018-01-27T01:38:01.745Z,9.33
2018-01-27T01:39:03.334Z,10.10
2018-01-27T01:40:04.581Z,10.60
2018-01-27T01:41:06.571Z,11.13
2018-01-27T01:42:07.856Z,13.10
2018-01-27T01:43:15.167Z,13.03
2018-01-27T01:44:22.826Z,12.90
2018-01-27T01:45:24.074Z,13.80
2018-01-27T01:46:26.057Z,13.63
2018-01-27T01:47:28.047Z,13.43
2018-01-27T01:48:29.295Z,13.53
2018-01-27T01:49:30.842Z,12.90
2018-01-27T01:50:32.097Z,13.57
2018-01-27T01:51:34.105Z,13.93
2018-01-27T01:52:35.325Z,14.30
2018-01-27T01:53:36.595Z,13.13
2018-01-27T01:54:38.136Z,14.23
2018-01-27T01:55:39.375Z,13.97
2018-01-27T01:56:40.631Z,14.80
2018-01-27T01:57:42.615Z,13.73
2018-01-27T01:58:43.947Z,14.17
2018-01-27T01:59:45.456Z,13.33
2018-01-27T02:00:47.471Z,14.20
2018-01-27T02:01:48.710Z,13.60
2018-01-27T02:02:49.975Z,15.37
2018-01-27T02:03:51.219Z,13.90
2018-01-27T02:04:53.565Z,13.40
2018-01-27T02:05:54.799Z,13.90
2018-01-27T02:06:56.031Z,14.03
2018-01-27T02:07:57.260Z,13.47
2018-01-27T02:08:58.487Z,14.20
2018-01-27T02:10:03.123Z,12.93
2018-01-27T02:11:04.368Z,15.13
2018-01-27T02:12:06.345Z,15.07
2018-01-27T02:13:07.573Z,13.63
2018-01-27T02:14:09.563Z,14.20
2018-01-27T02:15:11.099Z,14.77
2018-01-27T02:16:12.342Z,14.20
2018-01-27T02:17:13.597Z,14.23
2018-01-27T02:18:14.836Z,14.10
2018-01-27T02:19:16.063Z,14.17
2018-01-27T02:20:17.339Z,14.23
2018-01-27T02:21:18.607Z,15.10
2018-01-27T02:22:19.854Z,13.87
2018-01-27T02:23:21.109Z,13.53
2018-01-27T02:24:22.346Z,13.57
2018-01-27T02:25:23.613Z,13.33
2018-01-27T02:26:25.595Z,14.43
2018-01-27T02:27:26.873Z,13.93
2018-01-27T02:28:28.127Z,14.47
2018-01-27T02:29:30.119Z,14.37
2018-01-27T02:30:31.388Z,13.97
2018-01-27T02:31:32.635Z,14.63
2018-01-27T02:32:33.883Z,13.73
2018-01-27T02:33:35.926Z,13.93
2018-01-27T02:34:37.202Z,14.17
2018-01-27T02:35:38.836Z,14.03
2018-01-27T02:36:40.799Z,14.03
2018-01-27T02:37:42.045Z,14.07
2018-01-27T02:38:43.403Z,14.47
2018-01-27T02:39:44.681Z,13.90
2018-01-27T02:40:46.960Z,13.27
2018-01-27T02:41:48.243Z,13.37
2018-01-27T02:42:49.495Z,13.87
2018-01-27T02:43:50.744Z,14.70
2018-01-27T02:44:52.726Z,14.40
2018-01-27T02:45:54.241Z,14.47
2018-01-27T02:46:56.229Z,13.67
2018-01-27T02:47:57.475Z,14.07
2018-01-27T02:48:58.723Z,14.37
2018-01-27T02:49:59.961Z,13.70
2018-01-27T02:51:01.478Z,13.87
2018-01-27T02:52:02.709Z,15.10
2018-01-27T02:53:03.972Z,14.77
2018-01-27T02:54:05.256Z,14.83
2018-01-27T02:55:07.296Z,15.03
2018-01-27T02:56:09.564Z,15.33
2018-01-27T02:57:11.567Z,15.77
2018-01-27T02:58:12.819Z,16.23
2018-01-27T02:59:14.075Z,14.83
2018-01-27T03:00:16.039Z,14.70
2018-01-27T03:01:18.331Z,14.50
2018-01-27T03:02:19.573Z,14.03
2018-01-27T03:03:20.835Z,15.17
2018-01-27T03:04:22.061Z,16.17
2018-01-27T03:05:23.304Z,16.07
2018-01-27T03:06:24.862Z,15.63
2018-01-27T03:07:26.111Z,15.47
2018-01-27T03:08:28.099Z,16.63
2018-01-27T03:09:29.343Z,16.77
2018-01-27T03:10:30.605Z,18.43
2018-01-27T03:11:32.160Z,18.27
2018-01-27T03:12:33.401Z,18.33
2018-01-27T03:13:34.623Z,19.37
2018-01-27T03:14:35.864Z,18.97
2018-01-27T03:15:37.104Z,20.33
2018-01-27T03:16:38.655Z,20.20
2018-01-27T03:17:40.635Z,20.33
2018-01-27T03:18:41.881Z,19.27
2018-01-27T03:19:43.116Z,19.60
2018-01-27T03:20:44.353Z,20.63
2018-01-27T03:21:45.865Z,20.40
2018-01-27T03:22:47.856Z,19.97
2018-01-27T03:23:49.092Z,19.97
2018-01-27T03:24:50.325Z,21.73
2018-01-27T03:25:51.569Z,22.03
2018-01-27T03:26:53.105Z,22.23
2018-01-27T03:27:54.401Z,22.73
2018-01-27T03:28:56.372Z,23.47
2018-01-27T03:29:57.619Z,21.33
2018-01-27T03:30:58.843Z,23.00
2018-01-27T03:32:00.096Z,21.87
2018-01-27T03:33:01.357Z,22.53
2018-01-27T03:34:02.593Z,23.70
2018-01-27T03:35:03.841Z,21.10
2018-01-27T03:36:05.099Z,20.63
2018-01-27T03:37:07.089Z,21.30
2018-01-27T03:38:08.327Z,20.13
2018-01-27T03:39:09.555Z,19.47
2018-01-27T03:40:10.809Z,18.73
2018-01-27T03:41:12.036Z,18.97
2018-01-27T03:42:13.303Z,18.90
2018-01-27T03:43:14.541Z,19.07
2018-01-27T03:44:15.785Z,18.70
2018-01-27T03:45:17.759Z,19.50
2018-01-27T03:46:18.987Z,19.43
2018-01-27T03:47:21.323Z,18.73
2018-01-27T03:48:22.569Z,19.37
2018-01-27T03:49:23.807Z,18.73
2018-01-27T03:50:25.813Z,16.33
2018-01-27T03:51:27.049Z,13.87
2018-01-27T03:52:28.569Z,12.20
2018-01-27T03:53:29.835Z,12.73
2018-01-27T03:54:31.139Z,12.57
2018-01-27T03:55:32.389Z,11.83
2018-01-27T03:56:33.632Z,11.23
2018-01-27T03:57:35.015Z,10.73
2018-01-27T03:58:36.997Z,10.93
2018-01-27T03:59:38.231Z,11.87
2018-01-27T04:00:39.467Z,11.00
2018-01-27T04:01:40.713Z,11.17
2018-01-27T04:02:42.221Z,12.03
2018-01-27T04:03:44.230Z,10.00
2018-01-27T04:04:45.487Z,9.57
2018-01-27T04:05:46.734Z,9.10
2018-01-27T04:06:47.975Z,10.30
2018-01-27T04:07:50.227Z,10.70
2018-01-27T04:08:51.471Z,11.17
2018-01-27T04:09:53.454Z,10.03
2018-01-27T04:10:54.675Z,10.60
2018-01-27T04:11:55.895Z,10.40
2018-01-27T04:12:58.152Z,10.63
2018-01-27T04:14:00.119Z,10.80
2018-01-27T04:15:01.372Z,9.53
2018-01-27T04:16:02.607Z,8.23
2018-01-27T04:17:03.845Z,8.50
2018-01-27T04:18:05.435Z,8.70
2018-01-27T04:19:06.696Z,7.87
2018-01-27T04:20:08.667Z,7.87
2018-01-27T04:21:09.897Z,7.60
2018-01-27T04:22:11.119Z,8.07
2018-01-27T04:23:13.375Z,6.70
2018-01-27T04:24:15.363Z,7.50
2018-01-27T04:25:16.607Z,8.10
2018-01-27T04:26:17.847Z,6.87
2018-01-27T04:27:19.083Z,6.47
2018-01-27T04:28:20.621Z,7.43
2018-01-27T04:29:21.881Z,7.40
2018-01-27T04:30:23.133Z,7.20
2018-01-27T04:31:24.367Z,5.87
2018-01-27T04:32:25.603Z,6.57
2018-01-27T04:33:27.893Z,6.43
2018-01-27T04:34:29.913Z,6.53
2018-01-27T04:35:31.885Z,6.17
2018-01-27T04:36:33.859Z,6.03
2018-01-27T04:37:35.097Z,5.63
2018-01-27T04:38:36.610Z,5.63
2018-01-27T04:39:38.601Z,5.47
2018-01-27T04:40:39.871Z,5.70
2018-01-27T04:41:41.107Z,5.57
2018-01-27T04:42:42.343Z,5.40
2018-01-27T04:43:43.991Z,5.50
2018-01-27T04:44:45.217Z,5.83
2018-01-27T04:45:46.447Z,5.13
2018-01-27T04:46:47.695Z,4.80
2018-01-27T04:47:48.943Z,5.17
2018-01-27T04:48:50.960Z,4.77
2018-01-27T04:49:52.205Z,4.90
2018-01-27T04:50:53.443Z,4.97
2018-01-27T04:51:54.689Z,4.93
2018-01-27T04:52:55.923Z,4.47
2018-01-27T04:53:57.463Z,5.17
2018-01-27T04:54:58.685Z,4.23
2018-01-27T04:55:59.928Z,4.67
2018-01-27T04:57:01.159Z,4.70
2018-01-27T04:58:02.395Z,4.90
2018-01-27T04:59:03.907Z,5.30
2018-01-27T05:00:05.143Z,5.53
2018-01-27T05:01:06.379Z,4.80
2018-01-27T05:02:07.608Z,4.70
2018-01-27T05:03:08.865Z,5.30
2018-01-27T05:04:10.369Z,5.13
2018-01-27T05:05:11.617Z,5.40
2018-01-27T05:06:12.856Z,5.30
2018-01-27T05:07:14.091Z,5.03
2018-01-27T05:08:15.327Z,5.53
2018-01-27T05:09:16.845Z,6.20
2018-01-27T05:10:18.093Z,5.40
2018-01-27T05:11:19.311Z,5.83
2018-01-27T05:12:20.539Z,6.07
2018-01-27T05:13:22.518Z,6.60
2018-01-27T05:14:24.029Z,7.13
2018-01-27T05:15:26.028Z,6.40
2018-01-27T05:16:27.247Z,6.83
2018-01-27T05:17:28.477Z,6.83
2018-01-27T05:18:29.705Z,6.47
2018-01-27T05:19:31.257Z,6.50
2018-01-27T05:20:32.503Z,6.90
2018-01-27T05:21:33.735Z,6.77
2018-01-27T05:22:34.987Z,6.27
2018-01-27T05:23:36.249Z,6.63
2018-01-27T05:24:37.799Z,7.00
2018-01-27T05:25:39.039Z,6.60
2018-01-27T05:26:41.035Z,6.47
2018-01-27T05:27:42.269Z,7.17
2018-01-27T05:28:43.563Z,6.50
2018-01-27T05:29:45.825Z,6.80
2018-01-27T05:30:47.803Z,6.67
2018-01-27T05:31:49.029Z,6.80
2018-01-27T05:32:50.255Z,7.10
2018-01-27T05:33:52.207Z,7.03
2018-01-27T05:34:54.220Z,6.77
2018-01-27T05:35:55.821Z,6.93
2018-01-27T05:36:57.089Z,7.57
2018-01-27T05:37:58.327Z,7.40
2018-01-27T05:38:59.567Z,6.90
2018-01-27T05:40:01.095Z,6.97
2018-01-27T05:41:02.381Z,6.97
2018-01-27T05:42:04.375Z,6.70
2018-01-27T05:43:05.603Z,7.07
2018-01-27T05:44:07.016Z,6.47
2018-01-27T05:45:08.369Z,7.03
2018-01-27T05:46:09.661Z,7.47
2018-01-27T05:47:11.024Z,7.40
2018-01-27T05:48:13.061Z,7.57
2018-01-27T05:49:14.317Z,7.37
2018-01-27T05:50:16.343Z,7.27
2018-01-27T05:51:17.593Z,6.80
2018-01-27T05:52:19.575Z,7.53
2018-01-27T05:53:20.807Z,7.17
2018-01-27T05:54:22.045Z,8.17
2018-01-27T05:55:23.349Z,8.23
2018-01-27T05:56:25.334Z,7.20
2018-01-27T05:57:26.641Z,8.07
2018-01-27T05:58:28.647Z,8.50
2018-01-27T05:59:29.913Z,8.17
2018-01-27T06:00:31.175Z,8.67
2018-01-27T06:01:33.167Z,8.77
2018-01-27T06:02:34.393Z,8.33
2018-01-27T06:03:35.638Z,8.67
2018-01-27T06:04:36.875Z,8.63
2018-01-27T06:05:38.131Z,8.10
2018-01-27T06:06:39.383Z,8.20
2018-01-27T06:07:40.603Z,8.20
2018-01-27T06:08:42.631Z,8.10
2018-01-27T06:09:43.873Z,8.43
2018-01-27T06:10:45.121Z,8.30
2018-01-27T06:11:46.394Z,8.93
2018-01-27T06:12:48.380Z,8.70
2018-01-27T06:13:49.619Z,9.07
2018-01-27T06:14:50.843Z,8.80
2018-01-27T06:15:52.122Z,8.87
2018-01-27T06:16:53.369Z,8.80
2018-01-27T06:17:54.613Z,8.57
2018-01-27T06:18:56.615Z,9.50
2018-01-27T06:19:57.881Z,9.53
2018-01-27T06:20:59.419Z,9.47
2018-01-27T06:22:00.669Z,10.17
2018-01-27T06:23:01.920Z,11.67
2018-01-27T06:24:03.931Z,11.40
2018-01-27T06:25:05.163Z,11.63
2018-01-27T06:26:06.427Z,12.70
2018-01-27T06:27:07.763Z,12.70
2018-01-27T06:28:09.000Z,13.77
2018-01-27T06:29:10.239Z,14.67
2018-01-27T06:30:11.482Z,14.07
2018-01-27T06:31:13.743Z,14.07
2018-01-27T06:32:15.727Z,13.37
2018-01-27T06:33:16.959Z,13.53
2018-01-27T06:34:18.191Z,12.77
2018-01-27T06:35:19.423Z,12.83
2018-01-27T06:36:20.685Z,12.03
2018-01-27T06:37:21.936Z,12.00
2018-01-27T06:38:23.187Z,11.53
2018-01-27T06:39:24.431Z,10.17
2018-01-27T06:40:25.672Z,10.53
2018-01-27T06:41:27.665Z,10.57
2018-01-27T06:42:28.916Z,10.83
2018-01-27T06:43:30.151Z,9.90
2018-01-27T06:44:31.395Z,9.60
2018-01-27T06:45:32.635Z,9.13
2018-01-27T06:46:34.202Z,9.60
2018-01-27T06:47:35.447Z,7.90
2018-01-27T06:48:37.425Z,8.73
2018-01-27T06:49:38.707Z,9.33
2018-01-27T06:50:39.937Z,9.60
2018-01-27T06:51:41.496Z,9.00
2018-01-27T06:52:42.728Z,8.93
2018-01-27T06:53:44.017Z,8.67
2018-01-27T06:54:45.249Z,8.40
2018-01-27T06:55:46.485Z,8.70
2018-01-27T06:56:48.093Z,8.53
2018-01-27T06:57:50.643Z,8.30
2018-01-27T06:58:51.867Z,8.87
2018-01-27T06:59:53.107Z,7.80
2018-01-27T07:00:54.351Z,8.47
2018-01-27T07:01:55.611Z,8.00
2018-01-27T07:02:57.605Z,8.13
2018-01-27T07:03:58.851Z,7.80
2018-01-27T07:05:00.117Z,7.87
2018-01-27T07:06:01.356Z,8.27
2018-01-27T07:07:02.615Z,8.23
2018-01-27T07:08:03.860Z,8.20
2018-01-27T07:09:05.103Z,8.87
2018-01-27T07:10:06.360Z,8.23
2018-01-27T07:11:07.596Z,8.07
2018-01-27T07:12:08.849Z,8.00
2018-01-27T07:13:10.119Z,8.40
2018-01-27T07:14:12.105Z,8.90
2018-01-27T07:15:13.355Z,8.90
2018-01-27T07:16:14.607Z,8.53
2018-01-27T07:17:15.855Z,8.40
2018-01-27T07:18:17.109Z,8.73
2018-01-27T07:19:19.111Z,8.33
2018-01-27T07:20:20.427Z,8.33
2018-01-27T07:21:21.669Z,8.27
2018-01-27T07:22:22.945Z,8.43
2018-01-27T07:23:24.187Z,8.40
2018-01-27T07:24:25.465Z,7.67
2018-01-27T07:25:31.039Z,7.90
2018-01-27T07:26:33.155Z,7.57
2018-01-27T07:27:34.440Z,7.90
2018-01-27T07:28:35.681Z,8.03
2018-01-27T07:29:36.925Z,8.00
2018-01-27T07:30:38.180Z,8.57
2018-01-27T07:31:40.199Z,8.13
2018-01-27T07:32:41.759Z,8.20
2018-01-27T07:33:43.029Z,7.23
2018-01-27T07:34:44.243Z,8.20
2018-01-27T07:35:47.555Z,7.60
2018-01-27T07:36:55.799Z,8.17
2018-01-27T07:37:57.048Z,7.90
2018-01-27T07:38:58.325Z,8.63
2018-01-27T07:39:59.567Z,8.30
2018-01-27T07:41:01.551Z,8.20
2018-01-27T07:42:02.807Z,8.80
2018-01-27T07:43:04.056Z,8.17
2018-01-27T07:44:06.043Z,8.63
2018-01-27T07:45:07.311Z,8.03
2018-01-27T07:46:08.575Z,8.73
2018-01-27T07:47:10.563Z,8.53
2018-01-27T07:48:11.815Z,8.57
2018-01-27T07:49:13.055Z,10.33
2018-01-27T07:50:14.311Z,10.33
2018-01-27T07:51:15.549Z,9.53
2018-01-27T07:52:16.775Z,8.83
2018-01-27T07:53:18.331Z,8.97
2018-01-27T07:54:19.575Z,9.13
2018-01-27T07:55:21.569Z,8.40
2018-01-27T07:56:22.809Z,7.73
2018-01-27T07:57:24.043Z,8.23
2018-01-27T07:58:25.547Z,7.73
2018-01-27T07:59:27.545Z,7.93
2018-01-27T08:00:28.787Z,9.20
2018-01-27T08:01:30.027Z,9.00
2018-01-27T08:02:31.267Z,8.40
2018-01-27T08:03:32.751Z,9.43
2018-01-27T08:04:34.735Z,9.33
2018-01-27T08:05:35.975Z,8.30
2018-01-27T08:06:37.219Z,7.93
2018-01-27T08:07:38.458Z,7.97
2018-01-27T08:08:40.035Z,8.80
2018-01-27T08:09:42.007Z,8.50
2018-01-27T08:10:43.979Z,8.03
2018-01-27T08:11:45.216Z,8.97
2018-01-27T08:12:46.442Z,8.77
2018-01-27T08:13:47.695Z,7.80
2018-01-27T08:14:48.935Z,8.73
2018-01-27T08:15:50.182Z,8.57
2018-01-27T08:16:51.454Z,8.47
2018-01-27T08:17:53.453Z,8.43
2018-01-27T08:18:54.979Z,8.57
2018-01-27T08:19:56.216Z,9.20
2018-01-27T08:20:57.511Z,8.97
2018-01-27T08:21:58.755Z,9.03
2018-01-27T08:23:00.006Z,9.10
2018-01-27T08:24:02.013Z,8.40
2018-01-27T08:25:03.281Z,6.90
2018-01-27T08:26:05.319Z,7.20
2018-01-27T08:27:06.571Z,7.17
2018-01-27T08:28:08.580Z,7.43
2018-01-27T08:29:10.168Z,7.73
2018-01-27T08:30:20.503Z,8.23
2018-01-27T08:31:21.751Z,7.77
2018-01-27T08:32:23.735Z,8.40
2018-01-27T08:33:24.983Z,8.10
2018-01-27T08:34:26.487Z,7.90
2018-01-27T08:35:28.491Z,7.43
2018-01-27T08:36:29.755Z,7.43
2018-01-27T08:37:30.996Z,7.57
2018-01-27T08:38:32.233Z,6.77
2018-01-27T08:39:33.776Z,6.67
2018-01-27T08:40:35.007Z,6.50
2018-01-27T08:41:36.247Z,6.77
2018-01-27T08:42:38.263Z,7.43
2018-01-27T08:43:39.507Z,6.37
2018-01-27T08:44:40.771Z,6.80
2018-01-27T08:45:43.425Z,7.23
2018-01-27T08:46:44.715Z,6.87
2018-01-27T08:47:45.967Z,7.40
2018-01-27T08:48:53.263Z,7.43
2018-01-27T08:49:54.563Z,7.40
2018-01-27T08:50:55.859Z,7.57
2018-01-27T08:51:57.107Z,7.47
2018-01-27T08:52:59.083Z,7.20
2018-01-27T08:54:00.319Z,7.23
2018-01-27T08:55:01.572Z,7.57
2018-01-27T08:56:02.868Z,7.23
2018-01-27T08:57:04.843Z,7.33
2018-01-27T08:58:06.096Z,9.00
2018-01-27T08:59:07.350Z,8.47
2018-01-27T09:00:08.642Z,9.20
2018-01-27T09:01:09.880Z,11.37
2018-01-27T09:02:11.119Z,11.83
2018-01-27T09:03:12.356Z,11.17
2018-01-27T09:04:13.608Z,10.80
2018-01-27T09:05:15.127Z,10.80
2018-01-27T09:06:16.403Z,9.93
2018-01-27T09:07:17.670Z,9.43
2018-01-27T09:08:19.635Z,10.70
2018-01-27T09:09:21.619Z,10.70
2018-01-27T09:10:23.155Z,11.03
2018-01-27T09:11:24.377Z,10.83
2018-01-27T09:12:25.631Z,11.30
2018-01-27T09:13:26.896Z,11.33
2018-01-27T09:14:28.141Z,11.37
2018-01-27T09:15:29.403Z,13.17
2018-01-27T09:16:31.381Z,12.03
2018-01-27T09:17:33.356Z,12.30
2018-01-27T09:18:34.587Z,11.80
2018-01-27T09:20:51.472Z,12.60
2018-01-27T09:21:52.767Z,9.93
2018-01-27T09:22:55.519Z,9.67
2018-01-27T09:23:56.769Z,8.03
2018-01-27T09:24:58.002Z,7.87
2018-01-27T09:25:59.267Z,7.90
2018-01-27T09:27:01.244Z,10.17
2018-01-27T09:28:02.509Z,9.97
2018-01-27T09:29:03.743Z,10.07
2018-01-27T09:30:04.982Z,8.97
2018-01-27T09:31:06.235Z,10.90
2018-01-27T09:32:07.527Z,10.33
2018-01-27T09:33:08.800Z,10.53
2018-01-27T09:34:10.040Z,11.70
2018-01-27T09:35:11.294Z,10.77
2018-01-27T09:36:13.577Z,11.17
2018-01-27T09:37:14.955Z,9.97
2018-01-27T09:38:16.262Z,9.20
2018-01-27T09:39:17.549Z,7.43
2018-01-27T09:40:18.831Z,7.53
2018-01-27T09:41:20.369Z,7.77
2018-01-27T09:42:21.655Z,7.10
2018-01-27T09:43:23.030Z,7.67
2018-01-27T09:44:24.369Z,8.07
2018-01-27T09:45:25.781Z,8.30
2018-01-27T09:46:28.362Z,8.03
2018-01-27T09:47:30.478Z,7.73
2018-01-27T09:48:31.861Z,8.10
2018-01-27T09:49:33.279Z,8.00
2018-01-27T09:50:35.445Z,7.20
2018-01-27T09:51:38.060Z,6.20
2018-01-27T09:52:39.489Z,6.30
2018-01-27T09:53:40.795Z,6.30
2018-01-27T09:54:42.838Z,6.50
2018-01-27T09:55:44.850Z,6.07
2018-01-27T09:56:46.143Z,7.40
2018-01-27T09:57:48.168Z,7.60
2018-01-27T09:58:49.456Z,7.57
2018-01-27T09:59:50.832Z,8.70
2018-01-27T10:00:52.164Z,8.93
2018-01-27T10:01:53.435Z,8.03
2018-01-27T10:02:55.464Z,7.37
2018-01-27T10:03:56.711Z,6.70
2018-01-27T10:04:57.960Z,6.50
2018-01-27T10:05:59.955Z,6.20
2018-01-27T10:07:01.203Z,6.20
2018-01-27T10:08:02.443Z,5.93
2018-01-27T10:09:03.732Z,5.93
2018-01-27T10:10:05.720Z,5.87
2018-01-27T10:11:06.958Z,5.00
2018-01-27T10:12:08.239Z,5.67
2018-01-27T10:13:10.220Z,6.00
2018-01-27T10:14:11.448Z,5.77
2018-01-27T10:15:12.692Z,5.70
2018-01-27T10:16:13.926Z,5.70
2018-01-27T10:17:15.200Z,5.77
2018-01-27T10:18:16.453Z,5.87
2018-01-27T10:19:17.732Z,5.73
2018-01-27T10:20:18.958Z,5.90
2018-01-27T10:21:20.199Z,6.17
2018-01-27T10:22:21.824Z,6.20
2018-01-27T10:23:23.812Z,6.53
2018-01-27T10:24:25.048Z,6.47
2018-01-27T10:25:26.340Z,5.90
2018-01-27T10:26:28.332Z,6.67
2018-01-27T10:27:29.592Z,6.87
2018-01-27T10:28:30.832Z,6.50
2018-01-27T10:29:32.072Z,6.67
2018-01-27T10:30:33.328Z,6.53
2018-01-27T10:31:34.610Z,6.80
2018-01-27T10:32:36.144Z,6.57
2018-01-27T10:33:37.428Z,7.83
2018-01-27T10:34:38.666Z,8.30
2018-01-27T10:35:39.903Z,8.90
2018-01-27T10:36:41.152Z,13.20
2018-01-27T10:37:43.160Z,13.13
2018-01-27T10:38:44.393Z,10.37
2018-01-27T10:39:45.682Z,7.50
2018-01-27T10:40:47.654Z,6.97
2018-01-27T10:41:48.904Z,6.87
2018-01-27T10:42:50.196Z,6.93
2018-01-27T10:43:51.428Z,7.30
2018-01-27T10:44:52.712Z,8.30
2018-01-27T10:45:53.948Z,7.37
2018-01-27T10:46:55.208Z,7.93
2018-01-27T10:47:56.512Z,8.50
2018-01-27T10:48:57.788Z,9.50
2018-01-27T10:50:06.064Z,8.57
2018-01-27T10:51:07.316Z,7.57
2018-01-27T10:52:08.592Z,7.87
2018-01-27T10:53:10.588Z,7.90
2018-01-27T10:54:11.815Z,7.97
2018-01-27T10:55:13.067Z,8.50
2018-01-27T10:56:14.300Z,8.27
2018-01-27T10:57:15.532Z,8.50
2018-01-27T10:58:16.776Z,8.53
2018-01-27T10:59:18.008Z,9.17
2018-01-27T11:00:19.292Z,8.50
2018-01-27T11:01:21.277Z,8.77
2018-01-27T11:02:22.524Z,9.73
2018-01-27T11:03:23.795Z,10.47
2018-01-27T11:04:25.045Z,12.30
2018-01-27T11:05:26.309Z,12.33
2018-01-27T11:06:27.578Z,11.27
2018-01-27T11:07:28.804Z,12.50
2018-01-27T11:08:30.044Z,11.80
2018-01-27T11:09:31.284Z,12.30
2018-01-27T11:10:32.532Z,12.00
2018-01-27T11:11:33.773Z,12.77
2018-01-27T11:12:35.014Z,11.57
2018-01-27T11:13:36.552Z,11.77
2018-01-27T11:14:37.800Z,11.13
2018-01-27T11:15:39.048Z,11.83
2018-01-27T11:16:41.056Z,12.77
2018-01-27T11:17:42.276Z,12.67
2018-01-27T11:18:43.558Z,11.90
2018-01-27T11:19:44.794Z,12.00
2018-01-27T11:20:46.748Z,11.70
2018-01-27T11:21:48.736Z,11.23
2018-01-27T11:22:50.012Z,10.23
2018-01-27T11:23:51.529Z,11.07
2018-01-27T11:24:52.794Z,11.47
2018-01-27T11:25:54.028Z,10.90
2018-01-27T11:26:55.260Z,11.33
2018-01-27T11:27:56.511Z,11.20
2018-01-27T11:28:57.748Z,10.87
2018-01-27T11:29:58.992Z,10.67
2018-01-27T11:31:00.976Z,11.13
2018-01-27T11:32:02.216Z,11.37
2018-01-27T11:33:03.447Z,10.80
2018-01-27T11:34:04.708Z,10.97
2018-01-27T11:35:05.964Z,11.73
2018-01-27T11:36:07.196Z,10.90
2018-01-27T11:37:08.433Z,11.57
2018-01-27T11:38:09.687Z,11.27
2018-01-27T11:39:11.681Z,11.25
2018-01-27T11:40:12.995Z,12.33
2018-01-27T11:41:14.218Z,12.67
2018-01-27T11:42:16.188Z,12.88
2018-01-27T11:43:17.436Z,12.23
2018-01-27T11:44:18.696Z,12.30
2018-01-27T11:45:19.944Z,12.05
2018-01-27T11:46:21.180Z,12.48
2018-01-27T11:47:22.440Z,13.17
2018-01-27T11:48:24.436Z,12.67
2018-01-27T11:49:25.692Z,12.67
2018-01-27T11:50:26.968Z,12.43
2018-01-27T11:51:28.948Z,12.87
2018-01-27T11:52:30.224Z,13.23
2018-01-27T11:53:31.492Z,13.00
2018-01-27T11:54:33.488Z,13.85
2018-01-27T11:55:34.728Z,13.70
2018-01-27T11:56:35.996Z,14.30
2018-01-27T11:57:37.228Z,15.10
2018-01-27T11:58:38.457Z,14.70
2018-01-27T11:59:39.752Z,14.05
2018-01-27T12:00:40.985Z,14.02
2018-01-27T12:01:42.220Z,14.30
2018-01-27T12:02:43.484Z,14.68
2018-01-27T12:03:44.724Z,13.80
2018-01-27T12:04:45.984Z,13.77
2018-01-27T12:05:47.220Z,15.30
2018-01-27T12:06:48.467Z,15.67
2018-01-27T12:07:50.564Z,16.30
2018-01-27T12:08:51.812Z,14.37
2018-01-27T12:09:53.062Z,15.90
2018-01-27T12:10:54.302Z,16.87
2018-01-27T12:11:55.552Z,16.20
2018-01-27T12:12:56.796Z,18.40
2018-01-27T12:13:58.777Z,17.47
2018-01-27T12:15:00.031Z,25.20
2018-01-27T12:16:01.922Z,31.63
2018-01-27T12:17:03.198Z,24.70
2018-01-27T12:18:04.434Z,31.50
2018-01-27T12:19:05.668Z,19.90
2018-01-27T12:20:07.224Z,20.37
2018-01-27T12:21:08.472Z,41.33
2018-01-27T12:22:09.700Z,22.30
2018-01-27T12:23:10.960Z,16.43
2018-01-27T12:24:12.218Z,14.03
2018-01-27T12:25:13.740Z,13.23
2018-01-27T12:26:14.977Z,13.50
2018-01-27T12:27:16.204Z,14.70
2018-01-27T12:28:17.450Z,14.47
2018-01-27T12:29:18.686Z,15.23
2018-01-27T12:30:19.929Z,15.70
2018-01-27T12:31:21.184Z,13.48
2018-01-27T12:32:23.205Z,14.40
2018-01-27T12:33:24.460Z,12.57
2018-01-27T12:34:25.700Z,12.27
2018-01-27T12:35:27.821Z,11.40
2018-01-27T12:36:29.060Z,12.50
2018-01-27T12:37:30.337Z,12.48
2018-01-27T12:38:32.316Z,13.10
2018-01-27T12:39:33.564Z,12.77
2018-01-27T12:40:34.816Z,11.77
2018-01-27T12:41:36.064Z,12.27
2018-01-27T12:42:37.350Z,11.57
2018-01-27T12:43:38.590Z,10.97
2018-01-27T12:44:39.828Z,11.15
2018-01-27T12:45:41.077Z,10.53
2018-01-27T12:46:42.308Z,10.63
2018-01-27T12:47:43.544Z,11.27
2018-01-27T12:48:44.784Z,11.27
2018-01-27T12:49:46.004Z,11.53
2018-01-27T12:50:47.524Z,11.50
2018-01-27T12:51:48.804Z,11.77
2018-01-27T12:52:50.053Z,11.80
2018-01-27T12:53:51.290Z,11.67
2018-01-27T12:54:52.528Z,11.13
2018-01-27T12:55:53.792Z,11.73
2018-01-27T12:56:55.778Z,13.15
2018-01-27T12:57:57.024Z,12.37
2018-01-27T12:58:58.260Z,12.27
2018-01-27T12:59:59.484Z,12.07
2018-01-27T13:01:01.036Z,12.85
2018-01-27T13:02:02.286Z,12.10
2018-01-27T13:03:03.521Z,12.00
2018-01-27T13:04:04.764Z,12.60
2018-01-27T13:05:06.041Z,13.68
2018-01-27T13:06:07.564Z,13.15
2018-01-27T13:07:09.548Z,13.13
2018-01-27T13:08:10.791Z,11.93
2018-01-27T13:09:12.040Z,12.43
2018-01-27T13:10:13.260Z,14.73
2018-01-27T13:11:14.796Z,12.48
2018-01-27T13:12:16.033Z,12.07
2018-01-27T13:13:17.297Z,12.90
2018-01-27T13:14:18.540Z,13.17
2018-01-27T13:15:19.782Z,12.73
2018-01-27T13:16:21.040Z,14.13
2018-01-27T13:17:23.028Z,13.40
2018-01-27T13:18:24.285Z,13.40
2018-01-27T13:19:25.508Z,13.00
2018-01-27T13:20:26.767Z,14.03
2018-01-27T13:21:28.276Z,14.43
2018-01-27T13:22:29.532Z,13.63
2018-01-27T13:23:30.800Z,14.27
2018-01-27T13:24:32.048Z,14.95
2018-01-27T13:25:34.032Z,14.67
2018-01-27T13:26:35.300Z,14.93